sensor_id;sensor_type;location;lat;lon;timestamp;temperature;humidity
73777;DHT22;62088;50.240;2.696;2023-08-20T00:01:27;20.40;72.20
73777;DHT22;62088;50.240;2.696;2023-08-20T00:03:55;20.40;72.20
73777;DHT22;62088;50.240;2.696;2023-08-20T00:06:24;20.40;72.20
73777;DHT22;62088;50.240;2.696;2023-08-20T00:08:51;20.40;72.20
73777;DHT22;62088;50.240;2.696;2023-08-20T00:11:18;20.40;72.30
73777;DHT22;62088;50.240;2.696;2023-08-20T00:13:45;20.40;72.40
73777;DHT22;62088;50.240;2.696;2023-08-20T00:16:13;20.40;72.50
73777;DHT22;62088;50.240;2.696;2023-08-20T00:18:40;20.40;72.70
73777;DHT22;62088;50.240;2.696;2023-08-20T00:21:08;20.40;72.80
73777;DHT22;62088;50.240;2.696;2023-08-20T00:23:36;20.30;72.90
73777;DHT22;62088;50.240;2.696;2023-08-20T00:26:04;20.30;73.00
73777;DHT22;62088;50.240;2.696;2023-08-20T00:28:31;20.30;73.20
73777;DHT22;62088;50.240;2.696;2023-08-20T00:31:01;20.30;73.30
73777;DHT22;62088;50.240;2.696;2023-08-20T00:33:28;20.30;73.40
73777;DHT22;62088;50.240;2.696;2023-08-20T00:35:55;20.30;73.50
73777;DHT22;62088;50.240;2.696;2023-08-20T00:38:23;20.30;73.60
73777;DHT22;62088;50.240;2.696;2023-08-20T00:40:50;20.40;73.60
73777;DHT22;62088;50.240;2.696;2023-08-20T00:43:17;20.30;73.60
73777;DHT22;62088;50.240;2.696;2023-08-20T00:45:44;20.30;73.70
73777;DHT22;62088;50.240;2.696;2023-08-20T00:48:12;20.30;73.70
73777;DHT22;62088;50.240;2.696;2023-08-20T00:50:40;20.30;73.70
73777;DHT22;62088;50.240;2.696;2023-08-20T00:53:08;20.30;73.70
73777;DHT22;62088;50.240;2.696;2023-08-20T00:55:37;20.30;73.70
73777;DHT22;62088;50.240;2.696;2023-08-20T00:58:05;20.30;73.60
73777;DHT22;62088;50.240;2.696;2023-08-20T01:00:32;20.20;73.60
73777;DHT22;62088;50.240;2.696;2023-08-20T01:02:59;20.20;73.60
73777;DHT22;62088;50.240;2.696;2023-08-20T01:05:32;20.20;73.60
73777;DHT22;62088;50.240;2.696;2023-08-20T01:08:25;20.20;73.60
73777;DHT22;62088;50.240;2.696;2023-08-20T01:13:33;20.10;73.50
73777;DHT22;62088;50.240;2.696;2023-08-20T01:16:00;20.10;73.40
73777;DHT22;62088;50.240;2.696;2023-08-20T01:18:27;20.10;73.30
73777;DHT22;62088;50.240;2.696;2023-08-20T01:21:37;20.00;73.30
73777;DHT22;62088;50.240;2.696;2023-08-20T01:24:29;20.00;73.20
73777;DHT22;62088;50.240;2.696;2023-08-20T01:27:19;20.00;73.20
73777;DHT22;62088;50.240;2.696;2023-08-20T01:29:46;19.90;73.10
73777;DHT22;62088;50.240;2.696;2023-08-20T01:32:14;19.90;73.10
73777;DHT22;62088;50.240;2.696;2023-08-20T01:34:42;19.90;73.00
73777;DHT22;62088;50.240;2.696;2023-08-20T01:37:09;19.90;73.00
73777;DHT22;62088;50.240;2.696;2023-08-20T01:39:36;19.80;73.00
73777;DHT22;62088;50.240;2.696;2023-08-20T01:42:04;19.80;73.10
73777;DHT22;62088;50.240;2.696;2023-08-20T01:44:32;19.80;73.20
73777;DHT22;62088;50.240;2.696;2023-08-20T01:46:59;19.80;73.30
73777;DHT22;62088;50.240;2.696;2023-08-20T01:49:45;19.70;73.40
73777;DHT22;62088;50.240;2.696;2023-08-20T01:52:12;19.70;73.50
73777;DHT22;62088;50.240;2.696;2023-08-20T01:54:39;19.70;73.70
73777;DHT22;62088;50.240;2.696;2023-08-20T01:57:24;19.70;73.90
73777;DHT22;62088;50.240;2.696;2023-08-20T01:59:51;19.70;74.10
73777;DHT22;62088;50.240;2.696;2023-08-20T02:02:19;19.70;74.20
73777;DHT22;62088;50.240;2.696;2023-08-20T02:04:46;19.70;74.30
73777;DHT22;62088;50.240;2.696;2023-08-20T02:07:14;19.70;74.30
73777;DHT22;62088;50.240;2.696;2023-08-20T02:09:41;19.70;74.40
73777;DHT22;62088;50.240;2.696;2023-08-20T02:12:08;19.60;74.30
73777;DHT22;62088;50.240;2.696;2023-08-20T02:14:36;19.60;74.30
73777;DHT22;62088;50.240;2.696;2023-08-20T02:17:03;19.60;74.30
73777;DHT22;62088;50.240;2.696;2023-08-20T02:19:30;19.50;74.40
73777;DHT22;62088;50.240;2.696;2023-08-20T02:21:57;19.60;74.40
73777;DHT22;62088;50.240;2.696;2023-08-20T02:24:25;19.60;74.30
73777;DHT22;62088;50.240;2.696;2023-08-20T02:26:52;19.50;74.30
73777;DHT22;62088;50.240;2.696;2023-08-20T02:29:19;19.50;74.10
73777;DHT22;62088;50.240;2.696;2023-08-20T02:31:46;19.40;74.00
73777;DHT22;62088;50.240;2.696;2023-08-20T02:34:15;19.40;73.90
73777;DHT22;62088;50.240;2.696;2023-08-20T02:36:42;19.40;73.80
73777;DHT22;62088;50.240;2.696;2023-08-20T02:39:10;19.40;73.70
73777;DHT22;62088;50.240;2.696;2023-08-20T02:41:37;19.40;73.70
73777;DHT22;62088;50.240;2.696;2023-08-20T02:44:04;19.40;73.70
73777;DHT22;62088;50.240;2.696;2023-08-20T02:46:32;19.40;73.60
73777;DHT22;62088;50.240;2.696;2023-08-20T02:48:59;19.30;73.50
73777;DHT22;62088;50.240;2.696;2023-08-20T02:51:27;19.30;73.50
73777;DHT22;62088;50.240;2.696;2023-08-20T02:53:54;19.30;73.50
73777;DHT22;62088;50.240;2.696;2023-08-20T02:56:21;19.20;73.50
73777;DHT22;62088;50.240;2.696;2023-08-20T02:58:48;19.20;73.50
73777;DHT22;62088;50.240;2.696;2023-08-20T03:01:22;19.10;73.40
73777;DHT22;62088;50.240;2.696;2023-08-20T03:03:51;19.10;73.40
73777;DHT22;62088;50.240;2.696;2023-08-20T03:06:19;19.10;73.50
73777;DHT22;62088;50.240;2.696;2023-08-20T03:08:46;19.00;73.60
73777;DHT22;62088;50.240;2.696;2023-08-20T03:11:13;19.00;73.80
73777;DHT22;62088;50.240;2.696;2023-08-20T03:13:40;19.00;73.80
73777;DHT22;62088;50.240;2.696;2023-08-20T03:16:07;19.00;73.90
73777;DHT22;62088;50.240;2.696;2023-08-20T03:18:34;19.00;74.00
73777;DHT22;62088;50.240;2.696;2023-08-20T03:21:01;18.90;74.00
73777;DHT22;62088;50.240;2.696;2023-08-20T03:23:29;18.90;74.10
73777;DHT22;62088;50.240;2.696;2023-08-20T03:25:59;18.90;74.20
73777;DHT22;62088;50.240;2.696;2023-08-20T03:28:26;18.90;74.30
73777;DHT22;62088;50.240;2.696;2023-08-20T03:30:54;18.90;74.40
73777;DHT22;62088;50.240;2.696;2023-08-20T03:33:26;18.90;74.50
73777;DHT22;62088;50.240;2.696;2023-08-20T03:35:52;18.90;74.60
73777;DHT22;62088;50.240;2.696;2023-08-20T03:38:22;18.90;74.60
73777;DHT22;62088;50.240;2.696;2023-08-20T03:40:50;18.90;74.70
73777;DHT22;62088;50.240;2.696;2023-08-20T03:43:17;18.90;74.70
73777;DHT22;62088;50.240;2.696;2023-08-20T03:45:44;18.80;74.70
73777;DHT22;62088;50.240;2.696;2023-08-20T03:48:11;18.80;74.70
73777;DHT22;62088;50.240;2.696;2023-08-20T03:50:39;18.80;74.60
73777;DHT22;62088;50.240;2.696;2023-08-20T03:53:06;18.80;74.60
73777;DHT22;62088;50.240;2.696;2023-08-20T03:55:33;18.80;74.50
73777;DHT22;62088;50.240;2.696;2023-08-20T03:58:00;18.80;74.40
73777;DHT22;62088;50.240;2.696;2023-08-20T04:00:27;18.70;74.40
73777;DHT22;62088;50.240;2.696;2023-08-20T04:02:54;18.70;74.30
73777;DHT22;62088;50.240;2.696;2023-08-20T04:05:21;18.70;74.30
73777;DHT22;62088;50.240;2.696;2023-08-20T04:07:49;18.60;74.30
73777;DHT22;62088;50.240;2.696;2023-08-20T04:10:19;18.60;74.40
73777;DHT22;62088;50.240;2.696;2023-08-20T04:12:47;18.60;74.50
73777;DHT22;62088;50.240;2.696;2023-08-20T04:15:14;18.60;74.50
73777;DHT22;62088;50.240;2.696;2023-08-20T04:17:41;18.60;74.50
73777;DHT22;62088;50.240;2.696;2023-08-20T04:20:10;18.60;74.50
73777;DHT22;62088;50.240;2.696;2023-08-20T04:22:37;18.50;74.60
73777;DHT22;62088;50.240;2.696;2023-08-20T04:25:05;18.50;74.60
73777;DHT22;62088;50.240;2.696;2023-08-20T04:27:33;18.50;74.60
73777;DHT22;62088;50.240;2.696;2023-08-20T04:30:01;18.40;74.60
73777;DHT22;62088;50.240;2.696;2023-08-20T04:32:28;18.40;74.70
73777;DHT22;62088;50.240;2.696;2023-08-20T04:34:56;18.40;74.70
73777;DHT22;62088;50.240;2.696;2023-08-20T04:37:23;18.40;74.70
73777;DHT22;62088;50.240;2.696;2023-08-20T04:39:51;18.40;74.60
73777;DHT22;62088;50.240;2.696;2023-08-20T04:42:18;18.40;74.50
73777;DHT22;62088;50.240;2.696;2023-08-20T04:44:45;18.40;74.40
73777;DHT22;62088;50.240;2.696;2023-08-20T04:47:12;18.30;74.40
73777;DHT22;62088;50.240;2.696;2023-08-20T04:49:39;18.30;74.30
73777;DHT22;62088;50.240;2.696;2023-08-20T04:52:07;18.20;74.20
73777;DHT22;62088;50.240;2.696;2023-08-20T04:54:34;18.20;74.20
73777;DHT22;62088;50.240;2.696;2023-08-20T04:57:02;18.20;74.10
73777;DHT22;62088;50.240;2.696;2023-08-20T04:59:29;18.20;74.00
73777;DHT22;62088;50.240;2.696;2023-08-20T05:02:19;18.20;74.00
73777;DHT22;62088;50.240;2.696;2023-08-20T05:04:52;18.10;74.00
73777;DHT22;62088;50.240;2.696;2023-08-20T05:07:20;18.10;74.00
73777;DHT22;62088;50.240;2.696;2023-08-20T05:09:47;18.10;74.00
73777;DHT22;62088;50.240;2.696;2023-08-20T05:12:14;18.00;74.00
73777;DHT22;62088;50.240;2.696;2023-08-20T05:14:41;18.00;74.00
73777;DHT22;62088;50.240;2.696;2023-08-20T05:17:08;18.00;74.10
73777;DHT22;62088;50.240;2.696;2023-08-20T05:19:35;18.00;74.20
73777;DHT22;62088;50.240;2.696;2023-08-20T05:22:02;17.90;74.20
73777;DHT22;62088;50.240;2.696;2023-08-20T05:24:32;17.90;74.30
73777;DHT22;62088;50.240;2.696;2023-08-20T05:27:11;17.90;74.40
73777;DHT22;62088;50.240;2.696;2023-08-20T05:29:43;17.90;74.60
73777;DHT22;62088;50.240;2.696;2023-08-20T05:32:10;17.90;74.70
73777;DHT22;62088;50.240;2.696;2023-08-20T05:34:37;17.90;74.80
73777;DHT22;62088;50.240;2.696;2023-08-20T05:37:05;17.90;74.90
73777;DHT22;62088;50.240;2.696;2023-08-20T05:39:43;17.90;75.10
73777;DHT22;62088;50.240;2.696;2023-08-20T05:42:11;17.90;75.30
73777;DHT22;62088;50.240;2.696;2023-08-20T05:44:41;17.90;75.40
73777;DHT22;62088;50.240;2.696;2023-08-20T05:47:12;17.90;75.50
73777;DHT22;62088;50.240;2.696;2023-08-20T05:49:39;17.90;75.60
73777;DHT22;62088;50.240;2.696;2023-08-20T05:52:06;17.90;75.60
73777;DHT22;62088;50.240;2.696;2023-08-20T05:54:34;17.90;75.70
73777;DHT22;62088;50.240;2.696;2023-08-20T05:57:01;17.90;75.70
73777;DHT22;62088;50.240;2.696;2023-08-20T05:59:29;17.90;75.90
73777;DHT22;62088;50.240;2.696;2023-08-20T06:01:56;17.90;76.00
73777;DHT22;62088;50.240;2.696;2023-08-20T06:04:23;17.90;76.10
73777;DHT22;62088;50.240;2.696;2023-08-20T06:06:50;17.90;76.30
73777;DHT22;62088;50.240;2.696;2023-08-20T06:09:17;17.90;76.40
73777;DHT22;62088;50.240;2.696;2023-08-20T06:11:44;17.90;76.60
73777;DHT22;62088;50.240;2.696;2023-08-20T06:14:11;17.90;76.80
73777;DHT22;62088;50.240;2.696;2023-08-20T06:16:38;17.90;77.00
73777;DHT22;62088;50.240;2.696;2023-08-20T06:19:05;18.00;77.20
73777;DHT22;62088;50.240;2.696;2023-08-20T06:21:32;18.00;77.30
73777;DHT22;62088;50.240;2.696;2023-08-20T06:23:59;18.00;77.40
73777;DHT22;62088;50.240;2.696;2023-08-20T06:26:26;18.10;77.60
73777;DHT22;62088;50.240;2.696;2023-08-20T06:28:53;18.10;77.70
73777;DHT22;62088;50.240;2.696;2023-08-20T06:31:20;18.10;77.80
73777;DHT22;62088;50.240;2.696;2023-08-20T06:33:47;18.10;77.90
73777;DHT22;62088;50.240;2.696;2023-08-20T06:36:15;18.20;78.00
73777;DHT22;62088;50.240;2.696;2023-08-20T06:38:44;18.20;78.20
73777;DHT22;62088;50.240;2.696;2023-08-20T06:41:11;18.30;78.30
73777;DHT22;62088;50.240;2.696;2023-08-20T06:43:39;18.30;78.30
73777;DHT22;62088;50.240;2.696;2023-08-20T06:46:06;18.30;78.50
73777;DHT22;62088;50.240;2.696;2023-08-20T06:48:33;18.40;78.70
73777;DHT22;62088;50.240;2.696;2023-08-20T06:51:19;18.40;78.90
73777;DHT22;62088;50.240;2.696;2023-08-20T06:53:48;18.40;79.10
73777;DHT22;62088;50.240;2.696;2023-08-20T06:56:15;18.50;79.10
73777;DHT22;62088;50.240;2.696;2023-08-20T06:58:42;18.60;79.20
73777;DHT22;62088;50.240;2.696;2023-08-20T07:01:09;18.60;79.30
73777;DHT22;62088;50.240;2.696;2023-08-20T07:03:41;18.60;79.30
73777;DHT22;62088;50.240;2.696;2023-08-20T07:06:09;18.70;79.50
73777;DHT22;62088;50.240;2.696;2023-08-20T07:08:37;18.80;79.50
73777;DHT22;62088;50.240;2.696;2023-08-20T07:11:06;18.80;79.60
73777;DHT22;62088;50.240;2.696;2023-08-20T07:13:34;18.90;79.60
73777;DHT22;62088;50.240;2.696;2023-08-20T07:16:01;18.90;79.60
73777;DHT22;62088;50.240;2.696;2023-08-20T07:18:29;19.10;79.50
73777;DHT22;62088;50.240;2.696;2023-08-20T07:20:56;19.10;79.50
73777;DHT22;62088;50.240;2.696;2023-08-20T07:23:23;19.20;79.40
73777;DHT22;62088;50.240;2.696;2023-08-20T07:25:51;19.30;79.30
73777;DHT22;62088;50.240;2.696;2023-08-20T07:28:19;19.40;79.00
73777;DHT22;62088;50.240;2.696;2023-08-20T07:31:15;19.40;78.70
73777;DHT22;62088;50.240;2.696;2023-08-20T07:33:46;19.50;78.30
73777;DHT22;62088;50.240;2.696;2023-08-20T07:36:15;19.60;78.10
73777;DHT22;62088;50.240;2.696;2023-08-20T07:38:42;19.60;78.10
73777;DHT22;62088;50.240;2.696;2023-08-20T07:41:11;19.70;78.00
73777;DHT22;62088;50.240;2.696;2023-08-20T07:43:39;19.80;78.00
73777;DHT22;62088;50.240;2.696;2023-08-20T07:46:07;19.90;77.90
73777;DHT22;62088;50.240;2.696;2023-08-20T07:48:35;19.90;77.60
73777;DHT22;62088;50.240;2.696;2023-08-20T07:51:03;20.00;77.20
73777;DHT22;62088;50.240;2.696;2023-08-20T07:53:31;20.10;76.90
73777;DHT22;62088;50.240;2.696;2023-08-20T07:55:59;20.20;76.60
73777;DHT22;62088;50.240;2.696;2023-08-20T07:58:26;20.20;76.30
73777;DHT22;62088;50.240;2.696;2023-08-20T08:00:57;20.30;75.90
73777;DHT22;62088;50.240;2.696;2023-08-20T08:03:25;20.40;75.80
73777;DHT22;62088;50.240;2.696;2023-08-20T08:05:54;20.40;75.60
73777;DHT22;62088;50.240;2.696;2023-08-20T08:08:22;20.50;75.30
73777;DHT22;62088;50.240;2.696;2023-08-20T08:10:49;20.60;75.00
73777;DHT22;62088;50.240;2.696;2023-08-20T08:13:20;20.60;74.50
73777;DHT22;62088;50.240;2.696;2023-08-20T08:15:48;20.70;74.30
73777;DHT22;62088;50.240;2.696;2023-08-20T08:18:16;20.80;74.00
73777;DHT22;62088;50.240;2.696;2023-08-20T08:20:43;20.90;73.80
73777;DHT22;62088;50.240;2.696;2023-08-20T08:23:10;20.90;73.70
73777;DHT22;62088;50.240;2.696;2023-08-20T08:25:37;21.10;73.60
73777;DHT22;62088;50.240;2.696;2023-08-20T08:28:05;21.20;73.30
73777;DHT22;62088;50.240;2.696;2023-08-20T08:30:32;21.40;72.90
73777;DHT22;62088;50.240;2.696;2023-08-20T08:32:59;21.40;72.30
73777;DHT22;62088;50.240;2.696;2023-08-20T08:35:26;21.60;71.70
73777;DHT22;62088;50.240;2.696;2023-08-20T08:37:53;21.70;71.20
73777;DHT22;62088;50.240;2.696;2023-08-20T08:40:21;21.90;70.60
73777;DHT22;62088;50.240;2.696;2023-08-20T08:42:49;21.90;69.40
73777;DHT22;62088;50.240;2.696;2023-08-20T08:45:19;22.10;68.60
73777;DHT22;62088;50.240;2.696;2023-08-20T08:47:47;22.10;68.00
73777;DHT22;62088;50.240;2.696;2023-08-20T08:50:15;22.30;67.30
73777;DHT22;62088;50.240;2.696;2023-08-20T08:52:42;22.40;67.00
73777;DHT22;62088;50.240;2.696;2023-08-20T08:55:11;22.40;67.00
73777;DHT22;62088;50.240;2.696;2023-08-20T08:57:39;22.50;66.20
73777;DHT22;62088;50.240;2.696;2023-08-20T09:00:06;22.60;65.10
73777;DHT22;62088;50.240;2.696;2023-08-20T09:02:34;22.60;64.20
73777;DHT22;62088;50.240;2.696;2023-08-20T09:05:01;22.70;64.00
73777;DHT22;62088;50.240;2.696;2023-08-20T09:07:28;22.70;64.40
73777;DHT22;62088;50.240;2.696;2023-08-20T09:09:59;22.80;64.60
73777;DHT22;62088;50.240;2.696;2023-08-20T09:12:27;22.90;64.80
73777;DHT22;62088;50.240;2.696;2023-08-20T09:14:55;22.90;64.30
73777;DHT22;62088;50.240;2.696;2023-08-20T09:17:28;22.90;64.00
73777;DHT22;62088;50.240;2.696;2023-08-20T09:19:56;23.00;63.60
73777;DHT22;62088;50.240;2.696;2023-08-20T09:22:24;23.10;63.40
73777;DHT22;62088;50.240;2.696;2023-08-20T09:24:55;23.10;63.50
73777;DHT22;62088;50.240;2.696;2023-08-20T09:27:23;23.20;63.50
73777;DHT22;62088;50.240;2.696;2023-08-20T09:29:55;23.30;63.60
73777;DHT22;62088;50.240;2.696;2023-08-20T09:32:24;23.40;63.60
73777;DHT22;62088;50.240;2.696;2023-08-20T09:34:52;23.50;63.50
73777;DHT22;62088;50.240;2.696;2023-08-20T09:37:21;23.60;62.50
73777;DHT22;62088;50.240;2.696;2023-08-20T09:39:49;23.70;61.70
73777;DHT22;62088;50.240;2.696;2023-08-20T09:42:16;23.80;61.80
73777;DHT22;62088;50.240;2.696;2023-08-20T09:44:45;23.90;61.70
73777;DHT22;62088;50.240;2.696;2023-08-20T09:47:17;23.90;61.60
73777;DHT22;62088;50.240;2.696;2023-08-20T09:49:46;24.10;61.60
73777;DHT22;62088;50.240;2.696;2023-08-20T09:52:25;24.20;61.50
73777;DHT22;62088;50.240;2.696;2023-08-20T09:55:17;24.30;60.80
73777;DHT22;62088;50.240;2.696;2023-08-20T09:57:47;24.40;60.20
73777;DHT22;62088;50.240;2.696;2023-08-20T10:00:15;24.40;60.00
73777;DHT22;62088;50.240;2.696;2023-08-20T10:02:42;24.50;59.80
73777;DHT22;62088;50.240;2.696;2023-08-20T10:05:12;24.60;60.00
73777;DHT22;62088;50.240;2.696;2023-08-20T10:07:39;24.80;60.10
73777;DHT22;62088;50.240;2.696;2023-08-20T10:10:08;24.80;59.80
73777;DHT22;62088;50.240;2.696;2023-08-20T10:12:39;24.90;58.80
73777;DHT22;62088;50.240;2.696;2023-08-20T10:15:08;25.00;58.20
73777;DHT22;62088;50.240;2.696;2023-08-20T10:17:38;25.00;57.90
73777;DHT22;62088;50.240;2.696;2023-08-20T10:20:07;25.10;58.00
73777;DHT22;62088;50.240;2.696;2023-08-20T10:22:53;25.30;57.20
73777;DHT22;62088;50.240;2.696;2023-08-20T10:25:24;25.40;57.20
73777;DHT22;62088;50.240;2.696;2023-08-20T10:27:52;25.50;57.30
73777;DHT22;62088;50.240;2.696;2023-08-20T10:30:25;25.60;57.00
73777;DHT22;62088;50.240;2.696;2023-08-20T10:32:54;25.80;56.40
73777;DHT22;62088;50.240;2.696;2023-08-20T10:35:29;25.90;56.70
73777;DHT22;62088;50.240;2.696;2023-08-20T10:38:17;26.00;56.70
73777;DHT22;62088;50.240;2.696;2023-08-20T10:40:56;26.10;55.80
73777;DHT22;62088;50.240;2.696;2023-08-20T10:43:30;26.30;55.30
73777;DHT22;62088;50.240;2.696;2023-08-20T10:46:18;26.30;55.10
73777;DHT22;62088;50.240;2.696;2023-08-20T10:48:54;26.40;55.30
73777;DHT22;62088;50.240;2.696;2023-08-20T10:51:47;26.50;55.60
73777;DHT22;62088;50.240;2.696;2023-08-20T10:54:15;26.60;55.40
73777;DHT22;62088;50.240;2.696;2023-08-20T10:56:57;26.70;54.60
73777;DHT22;62088;50.240;2.696;2023-08-20T10:59:29;26.80;54.40
73777;DHT22;62088;50.240;2.696;2023-08-20T11:01:57;26.90;54.60
73777;DHT22;62088;50.240;2.696;2023-08-20T11:04:29;27.10;54.50
73777;DHT22;62088;50.240;2.696;2023-08-20T11:07:00;27.20;54.60
73777;DHT22;62088;50.240;2.696;2023-08-20T11:09:29;27.30;54.20
73777;DHT22;62088;50.240;2.696;2023-08-20T11:11:56;27.30;53.20
73777;DHT22;62088;50.240;2.696;2023-08-20T11:14:24;27.30;52.70
73777;DHT22;62088;50.240;2.696;2023-08-20T11:16:51;27.40;52.80
73777;DHT22;62088;50.240;2.696;2023-08-20T11:19:22;27.50;52.70
73777;DHT22;62088;50.240;2.696;2023-08-20T11:21:50;27.60;52.80
73777;DHT22;62088;50.240;2.696;2023-08-20T11:24:17;27.60;52.80
73777;DHT22;62088;50.240;2.696;2023-08-20T11:26:47;27.70;52.40
73777;DHT22;62088;50.240;2.696;2023-08-20T11:29:16;27.80;52.70
73777;DHT22;62088;50.240;2.696;2023-08-20T11:31:50;27.90;53.20
73777;DHT22;62088;50.240;2.696;2023-08-20T11:34:20;28.00;53.40
73777;DHT22;62088;50.240;2.696;2023-08-20T11:36:48;28.10;53.40
73777;DHT22;62088;50.240;2.696;2023-08-20T11:39:16;28.30;53.40
73777;DHT22;62088;50.240;2.696;2023-08-20T11:41:43;28.40;53.30
73777;DHT22;62088;50.240;2.696;2023-08-20T11:44:18;28.60;52.90
73777;DHT22;62088;50.240;2.696;2023-08-20T11:46:45;28.60;51.60
73777;DHT22;62088;50.240;2.696;2023-08-20T11:49:13;28.70;51.70
73777;DHT22;62088;50.240;2.696;2023-08-20T11:51:42;28.80;51.90
73777;DHT22;62088;50.240;2.696;2023-08-20T11:54:14;28.80;52.10
73777;DHT22;62088;50.240;2.696;2023-08-20T11:56:46;29.00;52.30
73777;DHT22;62088;50.240;2.696;2023-08-20T11:59:14;29.10;52.30
73777;DHT22;62088;50.240;2.696;2023-08-20T12:01:41;29.30;52.30
73777;DHT22;62088;50.240;2.696;2023-08-20T12:04:10;29.40;51.90
73777;DHT22;62088;50.240;2.696;2023-08-20T12:06:37;29.60;52.00
73777;DHT22;62088;50.240;2.696;2023-08-20T12:09:23;29.70;51.80
73777;DHT22;62088;50.240;2.696;2023-08-20T12:12:09;29.80;51.30
73777;DHT22;62088;50.240;2.696;2023-08-20T12:14:36;29.80;50.40
73777;DHT22;62088;50.240;2.696;2023-08-20T12:17:04;29.80;50.30
73777;DHT22;62088;50.240;2.696;2023-08-20T12:19:31;29.90;49.90
73777;DHT22;62088;50.240;2.696;2023-08-20T12:21:58;29.80;50.10
73777;DHT22;62088;50.240;2.696;2023-08-20T12:24:25;29.90;50.40
73777;DHT22;62088;50.240;2.696;2023-08-20T12:26:53;29.90;50.40
73777;DHT22;62088;50.240;2.696;2023-08-20T12:29:20;29.90;49.90
73777;DHT22;62088;50.240;2.696;2023-08-20T12:31:47;30.00;49.60
73777;DHT22;62088;50.240;2.696;2023-08-20T12:34:14;30.00;49.50
73777;DHT22;62088;50.240;2.696;2023-08-20T12:36:41;30.10;49.60
73777;DHT22;62088;50.240;2.696;2023-08-20T12:39:08;30.10;49.90
73777;DHT22;62088;50.240;2.696;2023-08-20T12:41:35;30.20;50.10
73777;DHT22;62088;50.240;2.696;2023-08-20T12:44:03;30.30;49.70
73777;DHT22;62088;50.240;2.696;2023-08-20T12:46:30;30.40;49.20
73777;DHT22;62088;50.240;2.696;2023-08-20T12:48:58;30.50;49.20
73777;DHT22;62088;50.240;2.696;2023-08-20T12:51:25;30.60;49.10
73777;DHT22;62088;50.240;2.696;2023-08-20T12:53:52;30.60;48.50
73777;DHT22;62088;50.240;2.696;2023-08-20T12:56:19;30.60;48.00
73777;DHT22;62088;50.240;2.696;2023-08-20T12:58:46;30.60;47.50
73777;DHT22;62088;50.240;2.696;2023-08-20T13:01:14;30.70;47.70
73777;DHT22;62088;50.240;2.696;2023-08-20T13:03:41;30.80;48.00
73777;DHT22;62088;50.240;2.696;2023-08-20T13:06:09;30.80;48.50
73777;DHT22;62088;50.240;2.696;2023-08-20T13:08:36;30.90;48.70
73777;DHT22;62088;50.240;2.696;2023-08-20T13:11:03;31.00;48.50
73777;DHT22;62088;50.240;2.696;2023-08-20T13:13:33;31.00;47.80
73777;DHT22;62088;50.240;2.696;2023-08-20T13:16:01;31.00;47.40
73777;DHT22;62088;50.240;2.696;2023-08-20T13:18:29;30.90;46.70
73777;DHT22;62088;50.240;2.696;2023-08-20T13:20:57;30.80;46.90
73777;DHT22;62088;50.240;2.696;2023-08-20T13:23:24;30.80;47.00
73777;DHT22;62088;50.240;2.696;2023-08-20T13:25:51;30.70;47.40
73777;DHT22;62088;50.240;2.696;2023-08-20T13:28:18;30.60;47.60
73777;DHT22;62088;50.240;2.696;2023-08-20T13:30:46;30.50;47.80
73777;DHT22;62088;50.240;2.696;2023-08-20T13:33:13;30.60;48.10
73777;DHT22;62088;50.240;2.696;2023-08-20T13:35:41;30.60;48.70
73777;DHT22;62088;50.240;2.696;2023-08-20T13:38:09;30.70;48.70
73777;DHT22;62088;50.240;2.696;2023-08-20T13:40:36;30.80;48.10
73777;DHT22;62088;50.240;2.696;2023-08-20T13:43:03;30.80;48.30
73777;DHT22;62088;50.240;2.696;2023-08-20T13:45:31;30.90;48.40
73777;DHT22;62088;50.240;2.696;2023-08-20T13:47:59;31.10;48.90
73777;DHT22;62088;50.240;2.696;2023-08-20T13:50:26;31.20;49.20
73777;DHT22;62088;50.240;2.696;2023-08-20T13:52:53;31.20;49.20
73777;DHT22;62088;50.240;2.696;2023-08-20T13:55:20;31.30;49.10
73777;DHT22;62088;50.240;2.696;2023-08-20T13:57:48;31.30;48.80
73777;DHT22;62088;50.240;2.696;2023-08-20T14:00:15;31.30;48.70
73777;DHT22;62088;50.240;2.696;2023-08-20T14:02:42;31.20;48.70
73777;DHT22;62088;50.240;2.696;2023-08-20T14:05:10;31.10;48.50
73777;DHT22;62088;50.240;2.696;2023-08-20T14:07:37;31.10;48.60
73777;DHT22;62088;50.240;2.696;2023-08-20T14:10:05;30.90;48.90
73777;DHT22;62088;50.240;2.696;2023-08-20T14:12:33;30.80;49.20
73777;DHT22;62088;50.240;2.696;2023-08-20T14:15:05;30.80;49.50
73777;DHT22;62088;50.240;2.696;2023-08-20T14:17:32;30.70;49.90
73777;DHT22;62088;50.240;2.696;2023-08-20T14:19:59;30.50;50.30
73777;DHT22;62088;50.240;2.696;2023-08-20T14:22:26;30.40;50.70
73777;DHT22;62088;50.240;2.696;2023-08-20T14:24:53;30.30;51.10
73777;DHT22;62088;50.240;2.696;2023-08-20T14:27:20;30.20;51.30
73777;DHT22;62088;50.240;2.696;2023-08-20T14:29:49;30.10;51.30
73777;DHT22;62088;50.240;2.696;2023-08-20T14:32:16;30.10;51.30
73777;DHT22;62088;50.240;2.696;2023-08-20T14:34:43;30.00;51.60
73777;DHT22;62088;50.240;2.696;2023-08-20T14:37:10;30.00;51.40
73777;DHT22;62088;50.240;2.696;2023-08-20T14:39:40;30.00;50.90
73777;DHT22;62088;50.240;2.696;2023-08-20T14:42:07;30.00;50.80
73777;DHT22;62088;50.240;2.696;2023-08-20T14:44:34;30.10;50.90
73777;DHT22;62088;50.240;2.696;2023-08-20T14:47:01;30.30;51.00
73777;DHT22;62088;50.240;2.696;2023-08-20T14:49:31;30.40;51.10
73777;DHT22;62088;50.240;2.696;2023-08-20T14:51:58;30.50;50.80
73777;DHT22;62088;50.240;2.696;2023-08-20T14:54:44;30.60;50.70
73777;DHT22;62088;50.240;2.696;2023-08-20T14:57:11;30.70;50.80
73777;DHT22;62088;50.240;2.696;2023-08-20T14:59:38;30.70;50.80
73777;DHT22;62088;50.240;2.696;2023-08-20T15:02:05;30.80;50.80
73777;DHT22;62088;50.240;2.696;2023-08-20T15:04:33;30.80;51.00
73777;DHT22;62088;50.240;2.696;2023-08-20T15:07:00;30.90;50.80
73777;DHT22;62088;50.240;2.696;2023-08-20T15:09:27;30.90;50.70
73777;DHT22;62088;50.240;2.696;2023-08-20T15:11:54;31.00;50.70
73777;DHT22;62088;50.240;2.696;2023-08-20T15:14:22;31.00;50.30
73777;DHT22;62088;50.240;2.696;2023-08-20T15:16:49;31.10;49.90
73777;DHT22;62088;50.240;2.696;2023-08-20T15:19:16;31.10;49.90
73777;DHT22;62088;50.240;2.696;2023-08-20T15:21:43;31.10;49.90
73777;DHT22;62088;50.240;2.696;2023-08-20T15:24:10;31.10;49.80
73777;DHT22;62088;50.240;2.696;2023-08-20T15:26:37;31.10;50.00
73777;DHT22;62088;50.240;2.696;2023-08-20T15:29:04;31.20;50.00
73777;DHT22;62088;50.240;2.696;2023-08-20T15:31:31;31.30;49.70
73777;DHT22;62088;50.240;2.696;2023-08-20T15:33:58;31.30;49.60
73777;DHT22;62088;50.240;2.696;2023-08-20T15:36:26;31.30;49.20
73777;DHT22;62088;50.240;2.696;2023-08-20T15:38:54;31.30;48.30
73777;DHT22;62088;50.240;2.696;2023-08-20T15:41:21;31.20;48.30
73777;DHT22;62088;50.240;2.696;2023-08-20T15:43:48;31.20;48.80